createdAt,value
2023-04-28T00:00:59.394Z,5.32
2023-04-28T00:03:28.523Z,4.57
2023-04-28T00:05:57.705Z,4.50
2023-04-28T00:08:27.305Z,5.53
2023-04-28T00:10:55.795Z,4.68
2023-04-28T00:13:24.148Z,5.75
2023-04-28T00:15:54.072Z,5.22
2023-04-28T00:18:23.482Z,4.95
2023-04-28T00:20:51.958Z,4.63
2023-04-28T00:23:20.261Z,5.35
2023-04-28T00:25:53.233Z,4.78
2023-04-28T00:28:33.462Z,4.88
2023-04-28T00:31:11.143Z,5.30
2023-04-28T00:33:39.514Z,5.10
2023-04-28T00:36:08.977Z,5.13
2023-04-28T00:38:37.262Z,5.03
2023-04-28T00:41:05.965Z,4.95
2023-04-28T00:43:44.820Z,5.00
2023-04-28T00:46:22.852Z,4.70
2023-04-28T00:48:51.516Z,5.25
2023-04-28T00:51:19.866Z,5.13
2023-04-28T00:53:48.567Z,3.83
2023-04-28T00:56:17.148Z,4.72
2023-04-28T00:58:45.490Z,5.13
2023-04-28T01:01:15.361Z,3.97
2023-04-28T01:03:44.227Z,4.43
2023-04-28T01:06:13.367Z,5.13
2023-04-28T01:08:42.447Z,5.45
2023-04-28T01:11:14.207Z,4.43
2023-04-28T01:13:42.815Z,4.75
2023-04-28T01:16:11.352Z,4.50
2023-04-28T01:18:48.083Z,4.70
2023-04-28T01:21:16.488Z,5.00
2023-04-28T01:23:48.677Z,5.20
2023-04-28T01:26:16.958Z,4.50
2023-04-28T01:28:45.548Z,5.57
2023-04-28T01:31:13.865Z,5.57
2023-04-28T01:33:42.208Z,5.65
2023-04-28T01:36:11.186Z,5.35
2023-04-28T01:38:39.503Z,5.30
2023-04-28T01:41:09.285Z,4.47
2023-04-28T01:43:37.528Z,4.20
2023-04-28T01:46:06.707Z,4.63
2023-04-28T01:48:35.074Z,5.45
2023-04-28T01:51:03.503Z,5.38
2023-04-28T01:53:31.773Z,4.70
2023-04-28T01:56:00.149Z,5.32
2023-04-28T01:58:29.904Z,4.97
2023-04-28T02:00:58.264Z,5.18
2023-04-28T02:03:28.161Z,5.30
2023-04-28T02:05:56.877Z,5.38
2023-04-28T02:08:25.272Z,5.35
2023-04-28T02:10:53.714Z,5.20
2023-04-28T02:13:22.044Z,4.75
2023-04-28T02:15:51.887Z,5.13
2023-04-28T02:18:20.494Z,5.57
2023-04-28T02:20:48.889Z,5.82
2023-04-28T02:23:17.249Z,5.63
2023-04-28T02:25:45.605Z,5.10
2023-04-28T02:28:14.201Z,6.03
2023-04-28T02:30:42.662Z,4.88
2023-04-28T02:33:12.690Z,5.43
2023-04-28T02:35:41.072Z,5.32
2023-04-28T02:38:09.536Z,6.20
2023-04-28T02:40:37.888Z,6.32
2023-04-28T02:43:06.379Z,5.50
2023-04-28T02:45:34.878Z,4.43
2023-04-28T02:48:04.691Z,15.00
2023-04-28T02:50:34.581Z,6.97
2023-04-28T02:53:02.948Z,5.18
2023-04-28T02:55:32.238Z,5.47
2023-04-28T02:58:00.654Z,6.07
2023-04-28T03:00:29.126Z,5.13
2023-04-28T03:02:57.625Z,5.10
2023-04-28T03:05:26.406Z,5.35
2023-04-28T03:07:56.235Z,4.88
2023-04-28T03:10:24.588Z,6.15
2023-04-28T03:12:52.936Z,5.43
2023-04-28T03:15:21.321Z,5.15
2023-04-28T03:17:49.726Z,4.68
2023-04-28T03:20:18.206Z,5.53
2023-04-28T03:22:46.607Z,5.72
2023-04-28T03:25:16.618Z,5.45
2023-04-28T03:27:44.949Z,5.50
2023-04-28T03:30:14.222Z,4.88
2023-04-28T03:32:42.675Z,5.78
2023-04-28T03:35:11.482Z,6.18
2023-04-28T03:37:39.835Z,6.93
2023-04-28T03:40:10.511Z,5.90
2023-04-28T03:42:40.308Z,4.95
2023-04-28T03:45:10.973Z,5.57
2023-04-28T03:47:39.388Z,4.97
2023-04-28T03:50:09.365Z,5.50
2023-04-28T03:52:37.766Z,6.13
2023-04-28T03:55:07.404Z,5.47
2023-04-28T03:57:36.143Z,5.40
2023-04-28T04:00:07.970Z,6.03
2023-04-28T04:02:36.985Z,6.15
2023-04-28T04:05:06.419Z,6.47
2023-04-28T04:07:34.858Z,5.70
2023-04-28T04:10:04.641Z,6.35
2023-04-28T04:12:33.251Z,5.50
2023-04-28T04:15:01.567Z,5.85
2023-04-28T04:17:31.737Z,5.20
2023-04-28T04:20:00.193Z,5.68
2023-04-28T04:22:28.605Z,6.32
2023-04-28T04:24:57.275Z,5.80
2023-04-28T04:27:26.157Z,5.70
2023-04-28T04:29:54.527Z,6.25
2023-04-28T04:32:23.037Z,6.43
2023-04-28T04:34:52.884Z,6.35
2023-04-28T04:37:21.344Z,5.90
2023-04-28T04:39:49.728Z,6.43
2023-04-28T04:42:25.450Z,5.78
2023-04-28T04:44:54.490Z,6.43
2023-04-28T04:47:23.002Z,7.43
2023-04-28T04:49:53.917Z,6.30
2023-04-28T04:52:22.294Z,6.03
2023-04-28T04:54:50.639Z,6.20
2023-04-28T04:57:19.100Z,6.78
2023-04-28T04:59:47.513Z,6.43
2023-04-28T05:02:16.085Z,6.00
2023-04-28T05:04:44.755Z,6.90
2023-04-28T05:07:14.600Z,6.60
2023-04-28T05:09:42.972Z,6.43
2023-04-28T05:12:11.289Z,6.22
2023-04-28T05:14:39.659Z,5.80
2023-04-28T05:17:08.044Z,7.15
2023-04-28T05:19:36.446Z,6.25
2023-04-28T05:22:04.877Z,6.60
2023-04-28T05:24:34.608Z,6.55
2023-04-28T05:27:03.132Z,6.63
2023-04-28T05:29:31.465Z,6.95
2023-04-28T05:31:59.998Z,6.13
2023-04-28T05:34:28.372Z,6.82
2023-04-28T05:36:56.848Z,5.25
2023-04-28T05:39:25.173Z,6.95
2023-04-28T05:41:54.989Z,5.88
2023-04-28T05:44:23.339Z,6.95
2023-04-28T05:46:51.871Z,6.55
2023-04-28T05:49:20.352Z,7.28
2023-04-28T05:51:48.644Z,7.35
2023-04-28T05:54:17.158Z,6.13
2023-04-28T05:56:45.769Z,6.43
2023-04-28T05:59:15.898Z,6.25
2023-04-28T06:01:44.304Z,6.60
2023-04-28T06:04:13.040Z,5.63
2023-04-28T06:06:41.618Z,5.65
2023-04-28T06:09:10.180Z,6.53
2023-04-28T06:11:38.549Z,4.97
2023-04-28T06:14:06.935Z,6.13
2023-04-28T06:16:36.839Z,6.93
2023-04-28T06:19:05.790Z,6.28
2023-04-28T06:21:34.322Z,6.95
2023-04-28T06:24:02.789Z,6.32
2023-04-28T06:26:31.476Z,6.35
2023-04-28T06:28:59.836Z,7.20
2023-04-28T06:31:28.272Z,5.03
2023-04-28T06:33:57.993Z,6.00
2023-04-28T06:36:26.838Z,5.65
2023-04-28T06:38:55.801Z,5.40
2023-04-28T06:41:24.214Z,6.70
2023-04-28T06:43:52.542Z,6.82
2023-04-28T06:46:20.910Z,5.50
2023-04-28T06:48:49.450Z,5.35
2023-04-28T06:51:19.188Z,4.78
2023-04-28T06:53:47.613Z,4.60
2023-04-28T06:56:16.052Z,5.53
2023-04-28T06:58:44.386Z,5.90
2023-04-28T07:01:12.741Z,5.30
2023-04-28T07:03:41.160Z,4.60
2023-04-28T07:06:10.101Z,6.00
2023-04-28T07:08:39.913Z,5.78
2023-04-28T07:11:08.309Z,5.18
2023-04-28T07:13:36.722Z,5.22
2023-04-28T07:16:06.097Z,5.45
2023-04-28T07:18:34.611Z,5.05
2023-04-28T07:21:05.304Z,4.68
2023-04-28T07:23:34.170Z,5.00
2023-04-28T07:26:03.945Z,5.05
2023-04-28T07:28:32.547Z,3.83
2023-04-28T07:31:00.849Z,5.15
2023-04-28T07:33:29.241Z,4.15
2023-04-28T07:35:57.881Z,3.85
2023-04-28T07:38:26.319Z,4.57
2023-04-28T07:40:54.727Z,4.03
2023-04-28T07:43:24.554Z,4.25
2023-04-28T07:45:53.233Z,3.55
2023-04-28T07:48:21.751Z,3.70
2023-04-28T07:50:50.153Z,3.88
2023-04-28T07:53:18.764Z,5.97
2023-04-28T07:55:47.211Z,4.28
2023-04-28T07:58:15.733Z,4.05
2023-04-28T08:00:45.689Z,3.70
2023-04-28T08:03:14.446Z,3.47
2023-04-28T08:05:43.062Z,3.28
2023-04-28T08:08:11.612Z,4.05
2023-04-28T08:10:42.123Z,3.60
2023-04-28T08:13:10.686Z,3.90
2023-04-28T08:15:39.206Z,3.78
2023-04-28T08:18:09.168Z,5.20
2023-04-28T08:20:37.523Z,4.22
2023-04-28T08:23:05.917Z,3.65
2023-04-28T08:25:34.411Z,3.55
2023-04-28T08:28:03.739Z,4.45
2023-04-28T08:30:32.128Z,4.05
2023-04-28T08:33:00.543Z,3.25
2023-04-28T08:35:31.069Z,3.80
2023-04-28T08:37:59.629Z,4.63
2023-04-28T08:40:29.807Z,3.47
2023-04-28T08:42:58.551Z,4.50
2023-04-28T08:45:28.487Z,3.03
2023-04-28T08:48:00.277Z,3.35
2023-04-28T08:50:32.690Z,3.10
2023-04-28T08:53:05.823Z,4.53
2023-04-28T08:55:35.249Z,4.05
2023-04-28T08:58:05.910Z,3.47
2023-04-28T09:00:34.420Z,3.50
2023-04-28T09:03:03.098Z,3.85
2023-04-28T09:05:33.336Z,3.10
2023-04-28T09:08:03.985Z,3.78
2023-04-28T09:10:34.298Z,3.00
2023-04-28T09:13:03.011Z,3.33
2023-04-28T09:15:34.536Z,3.20
2023-04-28T09:18:04.387Z,3.45
2023-04-28T09:20:35.974Z,3.63
2023-04-28T09:23:19.983Z,3.78
2023-04-28T09:26:03.420Z,3.45
2023-04-28T09:28:32.287Z,3.95
2023-04-28T09:31:01.373Z,3.90
2023-04-28T09:33:29.944Z,3.85
2023-04-28T09:35:59.836Z,3.58
2023-04-28T09:38:28.265Z,3.75
2023-04-28T09:41:01.922Z,4.00
2023-04-28T09:43:32.399Z,4.03
2023-04-28T09:46:02.852Z,3.60
2023-04-28T09:48:34.009Z,3.33
2023-04-28T09:51:06.287Z,4.25
2023-04-28T09:53:36.164Z,3.85
2023-04-28T09:56:06.552Z,3.70
2023-04-28T09:58:41.472Z,3.50
2023-04-28T10:01:12.961Z,3.38
2023-04-28T10:03:42.818Z,3.42
2023-04-28T10:06:12.972Z,2.92
2023-04-28T10:08:41.870Z,3.28
2023-04-28T10:11:11.055Z,4.47
2023-04-28T10:13:39.604Z,3.08
2023-04-28T10:16:09.504Z,3.10
2023-04-28T10:18:39.062Z,3.28
2023-04-28T10:21:09.537Z,3.75
2023-04-28T10:24:10.129Z,5.85
2023-04-28T10:27:05.837Z,3.50
2023-04-28T10:29:35.662Z,2.15
2023-04-28T10:32:18.405Z,3.03
2023-04-28T10:34:47.158Z,3.08
2023-04-28T10:37:17.116Z,2.50
2023-04-28T10:40:34.793Z,3.22
2023-04-28T10:43:04.246Z,2.50
2023-04-28T10:46:10.176Z,3.17
2023-04-28T10:48:58.000Z,3.40
2023-04-28T10:51:36.365Z,3.72
2023-04-28T10:54:20.689Z,3.58
2023-04-28T10:57:22.996Z,3.50
2023-04-28T10:59:52.398Z,2.85
2023-04-28T11:02:45.015Z,3.00
2023-04-28T11:05:19.303Z,3.95
2023-04-28T11:08:33.882Z,3.97
2023-04-28T11:11:20.896Z,3.58
2023-04-28T11:13:51.522Z,2.65
2023-04-28T11:16:23.322Z,3.47
2023-04-28T11:19:06.165Z,3.08
2023-04-28T11:21:34.958Z,3.30
2023-04-28T11:24:12.665Z,3.85
2023-04-28T11:26:41.671Z,3.03
2023-04-28T11:29:12.493Z,3.33
2023-04-28T11:31:40.945Z,3.67
2023-04-28T11:34:14.514Z,3.35
2023-04-28T11:36:43.535Z,3.42
2023-04-28T11:39:14.096Z,2.90
2023-04-28T11:41:44.176Z,4.03
2023-04-28T11:44:17.495Z,3.90
2023-04-28T11:46:53.828Z,3.15
2023-04-28T11:49:24.596Z,3.88
2023-04-28T11:51:53.692Z,3.22
2023-04-28T11:54:23.979Z,3.22
2023-04-28T11:56:53.480Z,3.00
2023-04-28T11:59:27.207Z,2.97
2023-04-28T12:01:59.433Z,4.00
2023-04-28T12:04:30.151Z,2.80
2023-04-28T12:07:10.413Z,3.08
2023-04-28T12:09:41.141Z,3.80
2023-04-28T12:12:12.348Z,3.63
2023-04-28T12:14:59.516Z,3.10
2023-04-28T12:17:29.256Z,3.53
2023-04-28T12:19:59.031Z,3.45
2023-04-28T12:22:27.763Z,3.25
2023-04-28T12:25:08.386Z,3.00
2023-04-28T12:27:40.505Z,2.35
2023-04-28T12:30:29.423Z,2.83
2023-04-28T12:32:58.610Z,3.08
2023-04-28T12:35:28.892Z,3.53
2023-04-28T12:37:59.175Z,2.95
2023-04-28T12:40:27.937Z,2.92
2023-04-28T12:42:56.972Z,3.63
2023-04-28T12:45:25.543Z,2.95
2023-04-28T12:47:57.020Z,3.42
2023-04-28T12:50:25.780Z,2.88
2023-04-28T12:52:56.270Z,2.70
2023-04-28T12:55:24.803Z,3.05
2023-04-28T12:57:53.491Z,3.72
2023-04-28T13:00:23.643Z,3.45
2023-04-28T13:02:53.358Z,2.70
2023-04-28T13:05:23.524Z,3.45
2023-04-28T13:07:52.584Z,2.25
2023-04-28T13:10:22.433Z,3.17
2023-04-28T13:12:50.891Z,2.67
2023-04-28T13:15:19.374Z,3.38
2023-04-28T13:17:49.249Z,3.28
2023-04-28T13:20:18.034Z,2.80
2023-04-28T13:22:47.849Z,3.47
2023-04-28T13:25:16.658Z,3.40
2023-04-28T13:27:45.121Z,3.08
2023-04-28T13:30:15.006Z,2.88
2023-04-28T13:32:43.377Z,3.22
2023-04-28T13:35:12.091Z,4.03
2023-04-28T13:37:45.717Z,3.42
2023-04-28T13:40:15.664Z,2.78
2023-04-28T13:42:44.325Z,3.30
2023-04-28T13:45:13.997Z,3.00
2023-04-28T13:47:44.308Z,3.38
2023-04-28T13:50:12.871Z,3.28
2023-04-28T13:52:41.507Z,2.90
2023-04-28T13:55:11.097Z,3.60
2023-04-28T13:57:41.126Z,2.97
2023-04-28T14:00:11.737Z,2.95
2023-04-28T14:02:40.483Z,3.75
2023-04-28T14:05:10.211Z,3.47
2023-04-28T14:07:38.849Z,4.80
2023-04-28T14:10:08.121Z,3.13
2023-04-28T14:12:36.823Z,3.55
2023-04-28T14:15:08.100Z,4.05
2023-04-28T14:17:37.017Z,3.42
2023-04-28T14:20:07.140Z,3.50
2023-04-28T14:22:35.648Z,3.50
2023-04-28T14:25:04.111Z,3.50
2023-04-28T14:27:33.105Z,3.90
2023-04-28T14:30:02.065Z,3.80
2023-04-28T14:32:31.886Z,3.60
2023-04-28T14:35:01.108Z,5.07
2023-04-28T14:37:29.597Z,6.55
2023-04-28T14:39:57.992Z,4.30
2023-04-28T14:42:32.122Z,3.90
2023-04-28T14:45:01.489Z,4.10
2023-04-28T14:47:31.452Z,3.65
2023-04-28T14:50:00.307Z,4.13
2023-04-28T14:52:29.241Z,4.43
2023-04-28T14:54:59.035Z,4.68
2023-04-28T14:57:27.972Z,4.47
2023-04-28T14:59:56.514Z,4.53
2023-04-28T15:02:28.404Z,3.78
2023-04-28T15:04:59.063Z,7.93
2023-04-28T15:07:31.237Z,4.20
2023-04-28T15:09:59.808Z,5.05
2023-04-28T15:12:30.405Z,4.35
2023-04-28T15:14:59.141Z,3.92
2023-04-28T15:17:27.825Z,4.65
2023-04-28T15:19:57.935Z,4.20
2023-04-28T15:22:26.390Z,5.55
2023-04-28T15:24:55.902Z,3.97
2023-04-28T15:27:24.434Z,5.80
2023-04-28T15:29:53.038Z,4.75
2023-04-28T15:32:21.585Z,4.18
2023-04-28T15:34:50.450Z,4.15
2023-04-28T15:37:43.959Z,4.72
2023-04-28T15:40:14.652Z,5.35
2023-04-28T15:42:48.791Z,5.50
2023-04-28T15:45:18.481Z,4.60
2023-04-28T15:47:50.442Z,5.20
2023-04-28T15:50:20.404Z,4.95
2023-04-28T15:52:51.300Z,4.35
2023-04-28T15:55:22.343Z,5.45
2023-04-28T15:57:52.467Z,6.40
2023-04-28T16:00:21.027Z,6.45
2023-04-28T16:02:49.810Z,6.40
2023-04-28T16:05:18.371Z,4.43
2023-04-28T16:07:47.572Z,5.65
2023-04-28T16:10:18.101Z,5.03
2023-04-28T16:12:46.455Z,4.40
2023-04-28T16:15:15.295Z,5.70
2023-04-28T16:17:44.446Z,4.80
2023-04-28T16:20:13.732Z,4.78
2023-04-28T16:22:43.175Z,5.95
2023-04-28T16:25:13.039Z,5.82
2023-04-28T16:27:42.867Z,5.20
2023-04-28T16:30:12.189Z,5.30
2023-04-28T16:32:41.066Z,5.25
2023-04-28T16:35:15.154Z,5.13
2023-04-28T16:37:44.476Z,6.47
2023-04-28T16:40:14.179Z,8.35
2023-04-28T16:42:45.153Z,8.02
2023-04-28T16:45:14.382Z,8.82
2023-04-28T16:47:43.938Z,7.85
2023-04-28T16:50:14.800Z,7.32
2023-04-28T16:52:43.415Z,9.63
2023-04-28T16:55:12.185Z,8.85
2023-04-28T16:57:40.533Z,7.18
2023-04-28T17:00:12.526Z,7.72
2023-04-28T17:02:41.077Z,7.45
2023-04-28T17:05:11.166Z,7.65
2023-04-28T17:07:39.489Z,6.72
2023-04-28T17:10:09.414Z,6.82
2023-04-28T17:12:37.860Z,8.13
2023-04-28T17:15:09.764Z,8.15
2023-04-28T17:17:38.132Z,7.50
2023-04-28T17:20:08.289Z,7.93
2023-04-28T17:22:36.923Z,7.05
2023-04-28T17:25:07.009Z,7.57
2023-04-28T17:27:35.518Z,9.13
2023-04-28T17:30:04.342Z,9.05
2023-04-28T17:32:34.547Z,8.20
2023-04-28T17:35:03.047Z,9.15
2023-04-28T17:37:33.588Z,8.18
2023-04-28T17:40:02.369Z,6.38
2023-04-28T17:42:32.150Z,7.85
2023-04-28T17:45:00.852Z,7.00
2023-04-28T17:47:29.365Z,7.05
2023-04-28T17:49:59.374Z,9.45
2023-04-28T17:52:28.004Z,7.97
2023-04-28T17:54:57.431Z,8.60
2023-04-28T17:57:26.783Z,8.40
2023-04-28T17:59:55.618Z,7.63
2023-04-28T18:02:24.149Z,7.47
2023-04-28T18:04:53.050Z,7.28
2023-04-28T18:07:23.317Z,8.55
2023-04-28T18:09:53.032Z,8.32
2023-04-28T18:12:21.688Z,9.20
2023-04-28T18:14:50.601Z,8.57
2023-04-28T18:17:19.422Z,7.80
2023-04-28T18:19:51.348Z,7.50
2023-04-28T18:22:20.281Z,9.50
2023-04-28T18:24:51.408Z,9.63
2023-04-28T18:27:21.511Z,8.40
2023-04-28T18:29:51.291Z,7.75
2023-04-28T18:32:21.177Z,8.77
2023-04-28T18:34:50.728Z,8.63
2023-04-28T18:37:20.898Z,7.05
2023-04-28T18:39:51.620Z,9.35
2023-04-28T18:42:21.257Z,7.45
2023-04-28T18:44:53.767Z,8.38
2023-04-28T18:47:24.126Z,8.32
2023-04-28T18:49:53.726Z,8.85
2023-04-28T18:52:24.307Z,8.38
2023-04-28T18:54:55.405Z,9.05
2023-04-28T18:57:24.446Z,8.02
2023-04-28T18:59:53.285Z,8.30
2023-04-28T19:02:23.288Z,8.98
2023-04-28T19:04:53.482Z,8.93
2023-04-28T19:07:22.537Z,7.30
2023-04-28T19:09:52.036Z,7.80
2023-04-28T19:12:22.572Z,6.95
2023-04-28T19:14:51.940Z,8.40
2023-04-28T19:17:21.685Z,8.77
2023-04-28T19:19:51.459Z,8.93
2023-04-28T19:22:38.171Z,9.48
2023-04-28T19:25:08.505Z,9.25
2023-04-28T19:27:43.382Z,9.02
2023-04-28T19:30:14.620Z,7.65
2023-04-28T19:32:44.344Z,8.55
2023-04-28T19:35:13.618Z,9.18
2023-04-28T19:37:43.612Z,9.32
2023-04-28T19:40:16.415Z,9.07
2023-04-28T19:42:46.645Z,9.15
2023-04-28T19:45:17.250Z,9.65
2023-04-28T19:47:45.786Z,9.98
2023-04-28T19:50:16.299Z,10.07
2023-04-28T19:52:45.661Z,8.70
2023-04-28T19:55:18.869Z,9.55
2023-04-28T19:57:49.734Z,10.00
2023-04-28T20:00:20.857Z,10.85
2023-04-28T20:02:53.183Z,10.65
2023-04-28T20:05:22.833Z,10.25
2023-04-28T20:07:55.313Z,9.90
2023-04-28T20:10:26.059Z,9.35
2023-04-28T20:12:57.115Z,8.85
2023-04-28T20:15:25.771Z,8.65
2023-04-28T20:17:55.584Z,10.27
2023-04-28T20:20:24.866Z,9.48
2023-04-28T20:22:53.689Z,7.65
2023-04-28T20:25:22.815Z,9.30
2023-04-28T20:27:52.049Z,7.90
2023-04-28T20:30:22.797Z,8.38
2023-04-28T20:32:51.782Z,8.15
2023-04-28T20:35:23.120Z,8.48
2023-04-28T20:37:51.560Z,7.93
2023-04-28T20:40:20.005Z,8.45
2023-04-28T20:42:49.585Z,8.93
2023-04-28T20:45:18.265Z,10.25
2023-04-28T20:47:48.124Z,8.68
2023-04-28T20:50:16.905Z,9.65
2023-04-28T20:52:45.731Z,11.50
2023-04-28T20:55:14.162Z,9.30
2023-04-28T20:57:42.533Z,10.23
2023-04-28T21:00:12.991Z,10.95
2023-04-28T21:02:41.537Z,10.73
2023-04-28T21:05:11.807Z,10.10
2023-04-28T21:07:40.209Z,9.88
2023-04-28T21:10:10.705Z,8.38
2023-04-28T21:12:39.319Z,9.23
2023-04-28T21:15:09.376Z,8.85
2023-04-28T21:17:37.776Z,9.73
2023-04-28T21:20:07.829Z,10.10
2023-04-28T21:22:37.636Z,9.85
2023-04-28T21:25:08.438Z,9.30
2023-04-28T21:27:37.027Z,9.27
2023-04-28T21:30:06.605Z,7.72
2023-04-28T21:32:35.060Z,8.52
2023-04-28T21:35:03.462Z,8.20
2023-04-28T21:37:32.790Z,8.23
2023-04-28T21:40:02.619Z,8.70
2023-04-28T21:42:32.116Z,9.13
2023-04-28T21:45:00.476Z,6.97
2023-04-28T21:47:29.834Z,8.25
2023-04-28T21:49:58.342Z,8.95
2023-04-28T21:52:26.913Z,8.00
2023-04-28T21:54:55.292Z,7.72
2023-04-28T21:57:25.030Z,8.35
2023-04-28T21:59:53.423Z,9.05
2023-04-28T22:02:22.203Z,9.75
2023-04-28T22:04:50.897Z,8.35
2023-04-28T22:07:19.229Z,10.05
2023-04-28T22:09:47.601Z,10.75
2023-04-28T22:12:15.944Z,10.95
2023-04-28T22:14:45.755Z,11.25
2023-04-28T22:17:14.211Z,9.68
2023-04-28T22:19:42.797Z,9.85
2023-04-28T22:22:11.177Z,13.10
2023-04-28T22:24:39.713Z,12.32
2023-04-28T22:27:08.783Z,9.25
2023-04-28T22:29:37.242Z,10.95
2023-04-28T22:32:08.410Z,10.20
2023-04-28T22:34:36.839Z,10.43
2023-04-28T22:37:05.686Z,9.82
2023-04-28T22:39:34.064Z,9.52
2023-04-28T22:42:02.906Z,10.48
2023-04-28T22:44:31.384Z,10.48
2023-04-28T22:47:00.109Z,9.27
2023-04-28T22:49:30.616Z,9.35
2023-04-28T22:51:59.976Z,9.77
2023-04-28T22:54:28.457Z,9.63
2023-04-28T22:56:56.965Z,10.07
2023-04-28T22:59:26.157Z,9.48
2023-04-28T23:01:55.708Z,9.77
2023-04-28T23:04:24.375Z,10.18
2023-04-28T23:06:54.146Z,10.40
2023-04-28T23:09:22.600Z,9.82
2023-04-28T23:11:51.050Z,9.52
2023-04-28T23:14:19.476Z,9.90
2023-04-28T23:16:47.851Z,9.48
2023-04-28T23:19:16.815Z,9.40
2023-04-28T23:21:46.454Z,9.00
2023-04-28T23:24:16.368Z,7.82
2023-04-28T23:26:44.762Z,8.20
2023-04-28T23:29:13.217Z,8.48
2023-04-28T23:31:41.612Z,8.40
2023-04-28T23:34:10.232Z,10.40
2023-04-28T23:36:38.920Z,8.80
2023-04-28T23:39:07.856Z,9.63
2023-04-28T23:41:37.635Z,8.30
2023-04-28T23:44:06.085Z,8.55
2023-04-28T23:46:34.504Z,9.75
2023-04-28T23:49:03.757Z,9.13
2023-04-28T23:51:32.962Z,8.00
2023-04-28T23:54:01.611Z,9.70
2023-04-28T23:56:30.030Z,8.75
2023-04-28T23:58:59.714Z,9.75
